Radford, Virginia
Current Conditions -  °F | °C
As of 9:55 AM on Thursday 30 Oct 2014 (Local Time) from KPSK Reporting Station
Clear Clear  
Wind Chill: 43°   Ceiling: Unl
Heat Index: 46°   Visibility: 10mi
Dew Point: 36°   Wind: 5mph
Humidity: 68%   Direction: 320°NW
Pressure: 30.12"   Gusts: NA
Location:  37.12°N, 80.59°W
Report Text: KPSK 301355Z AUTO 32004KT 10SM CLR 08/02 A3012 RMK AO2 T00760021
Loading
Personal Weather Stations






























Interactive Weather Map
Tropical Storm Tracking
New forecast layout! Learn more

10-Day Weather Forecast

Advertisements
Track Severe Weather on mobile